sensor_id;sensor_type;location;lat;lon;timestamp;P1;durP1;ratioP1;P2;durP2;ratioP2
9763;SDS011;4921;43.214;27.936;2024-02-23T00:01:39;22.30;;;11.40;;
9763;SDS011;4921;43.214;27.936;2024-02-23T00:04:05;22.95;;;10.80;;
9763;SDS011;4921;43.214;27.936;2024-02-23T00:06:32;21.20;;;10.52;;
9763;SDS011;4921;43.214;27.936;2024-02-23T00:08:59;22.00;;;10.80;;
9763;SDS011;4921;43.214;27.936;2024-02-23T00:11:24;23.40;;;12.05;;
9763;SDS011;4921;43.214;27.936;2024-02-23T00:13:50;24.65;;;11.45;;
9763;SDS011;4921;43.214;27.936;2024-02-23T00:16:16;21.48;;;10.90;;
9763;SDS011;4921;43.214;27.936;2024-02-23T00:18:41;20.02;;;10.40;;
9763;SDS011;4921;43.214;27.936;2024-02-23T00:21:07;21.30;;;11.52;;
9763;SDS011;4921;43.214;27.936;2024-02-23T00:23:32;18.25;;;10.10;;
9763;SDS011;4921;43.214;27.936;2024-02-23T00:25:59;19.63;;;11.43;;
9763;SDS011;4921;43.214;27.936;2024-02-23T00:28:25;22.33;;;12.20;;
9763;SDS011;4921;43.214;27.936;2024-02-23T00:30:50;22.17;;;10.40;;
9763;SDS011;4921;43.214;27.936;2024-02-23T00:33:16;22.35;;;11.90;;
9763;SDS011;4921;43.214;27.936;2024-02-23T00:35:41;20.95;;;12.07;;
9763;SDS011;4921;43.214;27.936;2024-02-23T00:38:07;20.95;;;10.95;;
9763;SDS011;4921;43.214;27.936;2024-02-23T00:40:32;21.25;;;10.95;;
9763;SDS011;4921;43.214;27.936;2024-02-23T00:42:59;23.92;;;11.98;;
9763;SDS011;4921;43.214;27.936;2024-02-23T00:45:29;21.95;;;11.75;;
9763;SDS011;4921;43.214;27.936;2024-02-23T00:47:55;19.42;;;11.88;;
9763;SDS011;4921;43.214;27.936;2024-02-23T00:50:22;21.10;;;11.73;;
9763;SDS011;4921;43.214;27.936;2024-02-23T00:52:48;18.92;;;10.55;;
9763;SDS011;4921;43.214;27.936;2024-02-23T00:55:14;20.55;;;11.45;;
9763;SDS011;4921;43.214;27.936;2024-02-23T00:57:39;19.00;;;10.93;;
9763;SDS011;4921;43.214;27.936;2024-02-23T01:00:05;20.08;;;10.77;;
9763;SDS011;4921;43.214;27.936;2024-02-23T01:02:31;20.08;;;11.15;;
9763;SDS011;4921;43.214;27.936;2024-02-23T01:04:58;24.05;;;12.60;;
9763;SDS011;4921;43.214;27.936;2024-02-23T01:07:24;20.27;;;10.85;;
9763;SDS011;4921;43.214;27.936;2024-02-23T01:09:50;21.38;;;11.10;;
9763;SDS011;4921;43.214;27.936;2024-02-23T01:12:15;18.77;;;10.48;;
9763;SDS011;4921;43.214;27.936;2024-02-23T01:14:41;21.60;;;11.60;;
9763;SDS011;4921;43.214;27.936;2024-02-23T01:17:07;21.83;;;11.25;;
9763;SDS011;4921;43.214;27.936;2024-02-23T01:19:33;19.77;;;11.05;;
9763;SDS011;4921;43.214;27.936;2024-02-23T01:21:58;20.35;;;10.63;;
9763;SDS011;4921;43.214;27.936;2024-02-23T01:24:26;19.75;;;11.35;;
9763;SDS011;4921;43.214;27.936;2024-02-23T01:26:54;23.92;;;12.18;;
9763;SDS011;4921;43.214;27.936;2024-02-23T01:29:20;23.23;;;11.65;;
9763;SDS011;4921;43.214;27.936;2024-02-23T01:31:47;23.90;;;11.32;;
9763;SDS011;4921;43.214;27.936;2024-02-23T01:34:13;22.50;;;11.70;;
9763;SDS011;4921;43.214;27.936;2024-02-23T01:36:39;22.08;;;11.32;;
9763;SDS011;4921;43.214;27.936;2024-02-23T01:39:05;22.08;;;11.38;;
9763;SDS011;4921;43.214;27.936;2024-02-23T01:41:30;21.40;;;11.23;;
9763;SDS011;4921;43.214;27.936;2024-02-23T01:43:57;21.98;;;11.50;;
9763;SDS011;4921;43.214;27.936;2024-02-23T01:46:23;20.58;;;11.35;;
9763;SDS011;4921;43.214;27.936;2024-02-23T01:48:48;20.08;;;11.13;;
9763;SDS011;4921;43.214;27.936;2024-02-23T01:51:14;21.75;;;11.23;;
9763;SDS011;4921;43.214;27.936;2024-02-23T01:53:40;18.48;;;10.20;;
9763;SDS011;4921;43.214;27.936;2024-02-23T01:56:06;19.75;;;10.82;;
9763;SDS011;4921;43.214;27.936;2024-02-23T01:58:32;21.63;;;10.10;;
9763;SDS011;4921;43.214;27.936;2024-02-23T02:01:00;19.35;;;10.20;;
9763;SDS011;4921;43.214;27.936;2024-02-23T02:03:26;18.83;;;10.23;;
9763;SDS011;4921;43.214;27.936;2024-02-23T02:05:52;21.25;;;11.00;;
9763;SDS011;4921;43.214;27.936;2024-02-23T02:08:18;20.15;;;10.75;;
9763;SDS011;4921;43.214;27.936;2024-02-23T02:10:45;22.08;;;11.63;;
9763;SDS011;4921;43.214;27.936;2024-02-23T02:13:12;21.17;;;11.68;;
9763;SDS011;4921;43.214;27.936;2024-02-23T02:15:37;20.40;;;10.82;;
9763;SDS011;4921;43.214;27.936;2024-02-23T02:18:04;20.48;;;10.65;;
9763;SDS011;4921;43.214;27.936;2024-02-23T02:20:32;21.35;;;11.73;;
9763;SDS011;4921;43.214;27.936;2024-02-23T02:22:58;20.92;;;12.13;;
9763;SDS011;4921;43.214;27.936;2024-02-23T02:25:24;23.00;;;11.82;;
9763;SDS011;4921;43.214;27.936;2024-02-23T02:27:50;20.17;;;11.27;;
9763;SDS011;4921;43.214;27.936;2024-02-23T02:30:15;23.75;;;11.27;;
9763;SDS011;4921;43.214;27.936;2024-02-23T02:32:41;19.85;;;10.77;;
9763;SDS011;4921;43.214;27.936;2024-02-23T02:35:07;21.50;;;12.27;;
9763;SDS011;4921;43.214;27.936;2024-02-23T02:37:32;23.42;;;11.70;;
9763;SDS011;4921;43.214;27.936;2024-02-23T02:39:58;18.60;;;11.00;;
9763;SDS011;4921;43.214;27.936;2024-02-23T02:42:23;22.67;;;11.32;;
9763;SDS011;4921;43.214;27.936;2024-02-23T02:44:49;22.52;;;11.73;;
9763;SDS011;4921;43.214;27.936;2024-02-23T02:47:14;21.20;;;12.18;;
9763;SDS011;4921;43.214;27.936;2024-02-23T02:49:40;21.70;;;11.70;;
9763;SDS011;4921;43.214;27.936;2024-02-23T02:52:06;21.50;;;11.68;;
9763;SDS011;4921;43.214;27.936;2024-02-23T02:54:33;23.23;;;11.57;;
9763;SDS011;4921;43.214;27.936;2024-02-23T02:56:59;21.80;;;11.43;;
9763;SDS011;4921;43.214;27.936;2024-02-23T02:59:24;21.02;;;11.88;;
9763;SDS011;4921;43.214;27.936;2024-02-23T03:01:50;20.35;;;11.27;;
9763;SDS011;4921;43.214;27.936;2024-02-23T03:04:15;21.17;;;11.30;;
9763;SDS011;4921;43.214;27.936;2024-02-23T03:06:41;18.88;;;11.00;;
9763;SDS011;4921;43.214;27.936;2024-02-23T03:09:06;20.77;;;12.18;;
9763;SDS011;4921;43.214;27.936;2024-02-23T03:11:32;25.65;;;12.20;;
9763;SDS011;4921;43.214;27.936;2024-02-23T03:13:58;22.92;;;11.85;;
9763;SDS011;4921;43.214;27.936;2024-02-23T03:16:23;21.05;;;10.77;;
9763;SDS011;4921;43.214;27.936;2024-02-23T03:18:51;20.20;;;10.85;;
9763;SDS011;4921;43.214;27.936;2024-02-23T03:21:19;21.75;;;11.57;;
9763;SDS011;4921;43.214;27.936;2024-02-23T03:23:45;25.45;;;11.70;;
9763;SDS011;4921;43.214;27.936;2024-02-23T03:26:10;20.63;;;11.18;;
9763;SDS011;4921;43.214;27.936;2024-02-23T03:28:36;20.98;;;11.25;;
9763;SDS011;4921;43.214;27.936;2024-02-23T03:31:01;20.38;;;11.20;;
9763;SDS011;4921;43.214;27.936;2024-02-23T03:33:27;23.73;;;12.25;;
9763;SDS011;4921;43.214;27.936;2024-02-23T03:35:52;20.13;;;11.25;;
9763;SDS011;4921;43.214;27.936;2024-02-23T03:38:18;20.92;;;11.63;;
9763;SDS011;4921;43.214;27.936;2024-02-23T03:40:44;22.92;;;12.32;;
9763;SDS011;4921;43.214;27.936;2024-02-23T03:43:09;19.35;;;10.88;;
9763;SDS011;4921;43.214;27.936;2024-02-23T03:45:35;25.35;;;12.57;;
9763;SDS011;4921;43.214;27.936;2024-02-23T03:48:00;22.13;;;12.52;;
9763;SDS011;4921;43.214;27.936;2024-02-23T03:50:29;23.52;;;12.90;;
9763;SDS011;4921;43.214;27.936;2024-02-23T03:52:55;22.13;;;12.93;;
9763;SDS011;4921;43.214;27.936;2024-02-23T03:55:20;23.55;;;12.57;;
9763;SDS011;4921;43.214;27.936;2024-02-23T03:57:47;20.85;;;11.77;;
9763;SDS011;4921;43.214;27.936;2024-02-23T04:00:13;24.00;;;12.43;;
9763;SDS011;4921;43.214;27.936;2024-02-23T04:02:38;25.20;;;13.07;;
9763;SDS011;4921;43.214;27.936;2024-02-23T04:05:05;25.35;;;12.93;;
9763;SDS011;4921;43.214;27.936;2024-02-23T04:07:30;24.88;;;12.73;;
9763;SDS011;4921;43.214;27.936;2024-02-23T04:09:56;22.52;;;12.35;;
9763;SDS011;4921;43.214;27.936;2024-02-23T04:12:22;23.15;;;12.15;;
9763;SDS011;4921;43.214;27.936;2024-02-23T04:14:47;23.63;;;13.45;;
9763;SDS011;4921;43.214;27.936;2024-02-23T04:17:13;23.88;;;12.02;;
9763;SDS011;4921;43.214;27.936;2024-02-23T04:19:40;23.33;;;12.05;;
9763;SDS011;4921;43.214;27.936;2024-02-23T04:22:06;25.73;;;14.48;;
9763;SDS011;4921;43.214;27.936;2024-02-23T04:24:37;23.02;;;12.57;;
9763;SDS011;4921;43.214;27.936;2024-02-23T04:27:04;23.48;;;11.70;;
9763;SDS011;4921;43.214;27.936;2024-02-23T04:29:30;21.65;;;12.55;;
9763;SDS011;4921;43.214;27.936;2024-02-23T04:31:57;24.35;;;12.80;;
9763;SDS011;4921;43.214;27.936;2024-02-23T04:34:23;28.10;;;13.07;;
9763;SDS011;4921;43.214;27.936;2024-02-23T04:36:49;22.45;;;11.98;;
9763;SDS011;4921;43.214;27.936;2024-02-23T04:39:14;23.33;;;12.35;;
9763;SDS011;4921;43.214;27.936;2024-02-23T04:41:40;22.98;;;13.18;;
9763;SDS011;4921;43.214;27.936;2024-02-23T04:44:05;24.08;;;13.07;;
9763;SDS011;4921;43.214;27.936;2024-02-23T04:46:31;23.55;;;12.23;;
9763;SDS011;4921;43.214;27.936;2024-02-23T04:48:59;23.08;;;11.88;;
9763;SDS011;4921;43.214;27.936;2024-02-23T04:51:24;24.20;;;12.70;;
9763;SDS011;4921;43.214;27.936;2024-02-23T04:53:50;21.58;;;12.35;;
9763;SDS011;4921;43.214;27.936;2024-02-23T04:56:16;24.60;;;13.65;;
9763;SDS011;4921;43.214;27.936;2024-02-23T04:58:41;26.48;;;13.70;;
9763;SDS011;4921;43.214;27.936;2024-02-23T05:01:08;26.33;;;13.50;;
9763;SDS011;4921;43.214;27.936;2024-02-23T05:03:33;23.08;;;12.38;;
9763;SDS011;4921;43.214;27.936;2024-02-23T05:05:59;22.40;;;12.30;;
9763;SDS011;4921;43.214;27.936;2024-02-23T05:08:25;20.35;;;12.27;;
9763;SDS011;4921;43.214;27.936;2024-02-23T05:10:52;27.73;;;14.27;;
9763;SDS011;4921;43.214;27.936;2024-02-23T05:13:18;24.20;;;13.93;;
9763;SDS011;4921;43.214;27.936;2024-02-23T05:15:44;22.67;;;12.95;;
9763;SDS011;4921;43.214;27.936;2024-02-23T05:18:10;25.00;;;13.23;;
9763;SDS011;4921;43.214;27.936;2024-02-23T05:20:35;25.80;;;13.77;;
9763;SDS011;4921;43.214;27.936;2024-02-23T05:23:01;23.40;;;12.60;;
9763;SDS011;4921;43.214;27.936;2024-02-23T05:25:26;25.90;;;14.55;;
9763;SDS011;4921;43.214;27.936;2024-02-23T05:27:53;25.42;;;14.38;;
9763;SDS011;4921;43.214;27.936;2024-02-23T05:30:18;24.02;;;13.57;;
9763;SDS011;4921;43.214;27.936;2024-02-23T05:32:44;26.85;;;13.98;;
9763;SDS011;4921;43.214;27.936;2024-02-23T05:35:10;26.00;;;14.48;;
9763;SDS011;4921;43.214;27.936;2024-02-23T05:37:35;27.63;;;14.43;;
9763;SDS011;4921;43.214;27.936;2024-02-23T05:40:02;25.40;;;13.82;;
9763;SDS011;4921;43.214;27.936;2024-02-23T05:42:35;25.08;;;13.48;;
9763;SDS011;4921;43.214;27.936;2024-02-23T05:45:02;39.58;;;26.27;;
9763;SDS011;4921;43.214;27.936;2024-02-23T05:47:29;26.55;;;14.35;;
9763;SDS011;4921;43.214;27.936;2024-02-23T05:49:55;31.98;;;18.88;;
9763;SDS011;4921;43.214;27.936;2024-02-23T05:52:21;22.30;;;12.68;;
9763;SDS011;4921;43.214;27.936;2024-02-23T05:54:47;25.02;;;13.57;;
9763;SDS011;4921;43.214;27.936;2024-02-23T05:57:12;24.85;;;13.05;;
9763;SDS011;4921;43.214;27.936;2024-02-23T05:59:38;25.48;;;14.10;;
9763;SDS011;4921;43.214;27.936;2024-02-23T06:02:03;23.02;;;12.75;;
9763;SDS011;4921;43.214;27.936;2024-02-23T06:04:29;24.90;;;14.52;;
9763;SDS011;4921;43.214;27.936;2024-02-23T06:06:55;22.23;;;12.15;;
9763;SDS011;4921;43.214;27.936;2024-02-23T06:09:20;21.65;;;12.15;;
9763;SDS011;4921;43.214;27.936;2024-02-23T06:11:46;23.50;;;12.68;;
9763;SDS011;4921;43.214;27.936;2024-02-23T06:14:12;25.30;;;13.80;;
9763;SDS011;4921;43.214;27.936;2024-02-23T06:16:38;22.52;;;13.60;;
9763;SDS011;4921;43.214;27.936;2024-02-23T06:19:03;24.33;;;13.32;;
9763;SDS011;4921;43.214;27.936;2024-02-23T06:21:29;21.70;;;12.27;;
9763;SDS011;4921;43.214;27.936;2024-02-23T06:23:55;22.33;;;11.15;;
9763;SDS011;4921;43.214;27.936;2024-02-23T06:26:21;19.45;;;10.35;;
9763;SDS011;4921;43.214;27.936;2024-02-23T06:28:46;18.00;;;10.38;;
9763;SDS011;4921;43.214;27.936;2024-02-23T06:31:14;19.17;;;10.43;;
9763;SDS011;4921;43.214;27.936;2024-02-23T06:33:39;18.77;;;10.40;;
9763;SDS011;4921;43.214;27.936;2024-02-23T06:36:06;17.13;;;10.13;;
9763;SDS011;4921;43.214;27.936;2024-02-23T06:38:31;20.20;;;10.07;;
9763;SDS011;4921;43.214;27.936;2024-02-23T06:40:57;16.73;;;9.20;;
9763;SDS011;4921;43.214;27.936;2024-02-23T06:43:41;18.05;;;9.98;;
9763;SDS011;4921;43.214;27.936;2024-02-23T06:46:07;16.90;;;9.82;;
9763;SDS011;4921;43.214;27.936;2024-02-23T06:48:36;16.35;;;9.15;;
9763;SDS011;4921;43.214;27.936;2024-02-23T06:51:05;16.98;;;9.30;;
9763;SDS011;4921;43.214;27.936;2024-02-23T06:53:34;17.88;;;10.07;;
9763;SDS011;4921;43.214;27.936;2024-02-23T06:56:00;17.52;;;9.73;;
9763;SDS011;4921;43.214;27.936;2024-02-23T06:58:27;20.48;;;11.10;;
9763;SDS011;4921;43.214;27.936;2024-02-23T07:00:52;17.05;;;10.35;;
9763;SDS011;4921;43.214;27.936;2024-02-23T07:03:18;21.52;;;10.77;;
9763;SDS011;4921;43.214;27.936;2024-02-23T07:05:43;21.33;;;10.68;;
9763;SDS011;4921;43.214;27.936;2024-02-23T07:08:10;18.98;;;10.60;;
9763;SDS011;4921;43.214;27.936;2024-02-23T07:10:36;21.27;;;10.75;;
9763;SDS011;4921;43.214;27.936;2024-02-23T07:13:02;21.90;;;10.82;;
9763;SDS011;4921;43.214;27.936;2024-02-23T07:15:27;20.92;;;11.38;;
9763;SDS011;4921;43.214;27.936;2024-02-23T07:17:53;19.33;;;11.65;;
9763;SDS011;4921;43.214;27.936;2024-02-23T07:20:18;22.02;;;10.27;;
9763;SDS011;4921;43.214;27.936;2024-02-23T07:22:47;19.10;;;10.82;;
9763;SDS011;4921;43.214;27.936;2024-02-23T07:25:16;20.85;;;11.38;;
9763;SDS011;4921;43.214;27.936;2024-02-23T07:27:44;24.50;;;12.38;;
9763;SDS011;4921;43.214;27.936;2024-02-23T07:30:10;20.67;;;11.93;;
9763;SDS011;4921;43.214;27.936;2024-02-23T07:32:36;19.58;;;10.93;;
9763;SDS011;4921;43.214;27.936;2024-02-23T07:35:03;21.08;;;10.77;;
9763;SDS011;4921;43.214;27.936;2024-02-23T07:37:29;19.15;;;11.40;;
9763;SDS011;4921;43.214;27.936;2024-02-23T07:39:54;22.88;;;12.18;;
9763;SDS011;4921;43.214;27.936;2024-02-23T07:42:20;21.52;;;10.77;;
9763;SDS011;4921;43.214;27.936;2024-02-23T07:44:46;23.10;;;11.77;;
9763;SDS011;4921;43.214;27.936;2024-02-23T07:47:11;21.45;;;11.00;;
9763;SDS011;4921;43.214;27.936;2024-02-23T07:49:37;19.77;;;11.02;;
9763;SDS011;4921;43.214;27.936;2024-02-23T07:52:03;19.88;;;10.40;;
9763;SDS011;4921;43.214;27.936;2024-02-23T07:54:29;21.95;;;11.75;;
9763;SDS011;4921;43.214;27.936;2024-02-23T07:56:54;20.08;;;11.23;;
9763;SDS011;4921;43.214;27.936;2024-02-23T07:59:22;18.88;;;10.82;;
9763;SDS011;4921;43.214;27.936;2024-02-23T08:01:48;18.52;;;11.30;;
9763;SDS011;4921;43.214;27.936;2024-02-23T08:04:13;21.20;;;11.57;;
9763;SDS011;4921;43.214;27.936;2024-02-23T08:06:39;22.17;;;10.23;;
9763;SDS011;4921;43.214;27.936;2024-02-23T08:09:04;20.35;;;10.43;;
9763;SDS011;4921;43.214;27.936;2024-02-23T08:11:30;16.17;;;9.48;;
9763;SDS011;4921;43.214;27.936;2024-02-23T08:13:55;18.90;;;9.55;;
9763;SDS011;4921;43.214;27.936;2024-02-23T08:16:21;17.67;;;10.27;;
9763;SDS011;4921;43.214;27.936;2024-02-23T08:18:47;17.42;;;9.77;;
9763;SDS011;4921;43.214;27.936;2024-02-23T08:21:12;16.08;;;9.48;;
9763;SDS011;4921;43.214;27.936;2024-02-23T08:23:38;16.88;;;10.20;;
9763;SDS011;4921;43.214;27.936;2024-02-23T08:26:03;19.80;;;11.13;;
9763;SDS011;4921;43.214;27.936;2024-02-23T08:28:29;22.13;;;11.05;;
9763;SDS011;4921;43.214;27.936;2024-02-23T08:30:55;16.17;;;9.95;;
9763;SDS011;4921;43.214;27.936;2024-02-23T08:33:20;20.77;;;11.15;;
9763;SDS011;4921;43.214;27.936;2024-02-23T08:35:46;21.33;;;10.60;;
9763;SDS011;4921;43.214;27.936;2024-02-23T08:38:13;17.02;;;10.02;;
9763;SDS011;4921;43.214;27.936;2024-02-23T08:40:39;18.15;;;10.50;;
9763;SDS011;4921;43.214;27.936;2024-02-23T08:43:05;19.63;;;10.48;;
9763;SDS011;4921;43.214;27.936;2024-02-23T08:45:31;20.35;;;10.95;;
9763;SDS011;4921;43.214;27.936;2024-02-23T08:47:56;15.77;;;9.50;;
9763;SDS011;4921;43.214;27.936;2024-02-23T08:50:22;19.33;;;10.55;;
9763;SDS011;4921;43.214;27.936;2024-02-23T08:52:47;18.90;;;10.57;;
9763;SDS011;4921;43.214;27.936;2024-02-23T08:55:13;18.95;;;10.07;;
9763;SDS011;4921;43.214;27.936;2024-02-23T08:57:38;18.75;;;10.68;;
9763;SDS011;4921;43.214;27.936;2024-02-23T09:00:04;18.73;;;10.35;;
9763;SDS011;4921;43.214;27.936;2024-02-23T09:02:30;17.77;;;10.98;;
9763;SDS011;4921;43.214;27.936;2024-02-23T09:04:57;19.15;;;10.52;;
9763;SDS011;4921;43.214;27.936;2024-02-23T09:07:23;21.17;;;10.57;;
9763;SDS011;4921;43.214;27.936;2024-02-23T09:09:49;18.08;;;10.27;;
9763;SDS011;4921;43.214;27.936;2024-02-23T09:12:15;19.98;;;10.27;;
9763;SDS011;4921;43.214;27.936;2024-02-23T09:14:44;17.92;;;9.60;;
9763;SDS011;4921;43.214;27.936;2024-02-23T09:17:11;19.00;;;9.90;;
9763;SDS011;4921;43.214;27.936;2024-02-23T09:19:38;19.70;;;10.70;;
9763;SDS011;4921;43.214;27.936;2024-02-23T09:22:03;18.67;;;10.25;;
9763;SDS011;4921;43.214;27.936;2024-02-23T09:24:29;16.27;;;9.43;;
9763;SDS011;4921;43.214;27.936;2024-02-23T09:26:55;17.98;;;10.38;;
9763;SDS011;4921;43.214;27.936;2024-02-23T09:29:20;20.23;;;10.45;;
9763;SDS011;4921;43.214;27.936;2024-02-23T09:31:49;17.52;;;9.85;;
9763;SDS011;4921;43.214;27.936;2024-02-23T09:34:14;16.35;;;9.35;;
9763;SDS011;4921;43.214;27.936;2024-02-23T09:36:40;16.27;;;9.30;;
9763;SDS011;4921;43.214;27.936;2024-02-23T09:39:06;19.42;;;9.95;;
9763;SDS011;4921;43.214;27.936;2024-02-23T09:41:31;16.63;;;10.07;;
9763;SDS011;4921;43.214;27.936;2024-02-23T09:44:00;15.70;;;9.70;;
9763;SDS011;4921;43.214;27.936;2024-02-23T09:48:52;17.05;;;10.07;;
9763;SDS011;4921;43.214;27.936;2024-02-23T09:51:20;15.23;;;9.20;;
9763;SDS011;4921;43.214;27.936;2024-02-23T09:53:48;16.98;;;9.85;;
9763;SDS011;4921;43.214;27.936;2024-02-23T09:56:15;16.48;;;9.50;;
9763;SDS011;4921;43.214;27.936;2024-02-23T09:58:42;16.13;;;9.00;;
9763;SDS011;4921;43.214;27.936;2024-02-23T10:01:09;15.65;;;8.82;;
9763;SDS011;4921;43.214;27.936;2024-02-23T10:03:37;15.60;;;9.30;;
9763;SDS011;4921;43.214;27.936;2024-02-23T10:06:04;16.95;;;8.50;;
9763;SDS011;4921;43.214;27.936;2024-02-23T10:08:30;17.95;;;8.75;;
9763;SDS011;4921;43.214;27.936;2024-02-23T10:10:55;18.05;;;9.70;;
9763;SDS011;4921;43.214;27.936;2024-02-23T10:13:22;14.85;;;9.00;;
9763;SDS011;4921;43.214;27.936;2024-02-23T10:15:51;14.45;;;8.43;;
9763;SDS011;4921;43.214;27.936;2024-02-23T10:21:05;14.38;;;8.32;;
9763;SDS011;4921;43.214;27.936;2024-02-23T10:23:30;13.85;;;8.57;;
9763;SDS011;4921;43.214;27.936;2024-02-23T10:25:56;11.05;;;7.75;;
9763;SDS011;4921;43.214;27.936;2024-02-23T10:28:21;13.38;;;8.57;;
9763;SDS011;4921;43.214;27.936;2024-02-23T10:30:48;15.30;;;7.97;;
9763;SDS011;4921;43.214;27.936;2024-02-23T10:33:14;14.52;;;8.77;;
9763;SDS011;4921;43.214;27.936;2024-02-23T10:35:39;15.85;;;8.40;;
9763;SDS011;4921;43.214;27.936;2024-02-23T10:38:09;14.68;;;7.88;;
9763;SDS011;4921;43.214;27.936;2024-02-23T10:40:35;16.70;;;8.70;;
9763;SDS011;4921;43.214;27.936;2024-02-23T10:43:06;13.30;;;8.02;;
9763;SDS011;4921;43.214;27.936;2024-02-23T10:45:37;17.88;;;9.00;;
9763;SDS011;4921;43.214;27.936;2024-02-23T10:48:04;17.13;;;8.93;;
9763;SDS011;4921;43.214;27.936;2024-02-23T10:50:34;14.43;;;8.40;;
9763;SDS011;4921;43.214;27.936;2024-02-23T10:53:01;16.77;;;9.18;;
9763;SDS011;4921;43.214;27.936;2024-02-23T10:55:28;14.82;;;8.85;;
9763;SDS011;4921;43.214;27.936;2024-02-23T10:57:57;14.32;;;8.00;;
9763;SDS011;4921;43.214;27.936;2024-02-23T11:00:23;14.35;;;8.52;;
9763;SDS011;4921;43.214;27.936;2024-02-23T11:02:51;15.23;;;8.23;;
9763;SDS011;4921;43.214;27.936;2024-02-23T11:05:18;14.18;;;8.45;;
9763;SDS011;4921;43.214;27.936;2024-02-23T11:07:47;14.35;;;7.80;;
9763;SDS011;4921;43.214;27.936;2024-02-23T11:10:17;13.45;;;8.38;;
9763;SDS011;4921;43.214;27.936;2024-02-23T11:12:44;14.15;;;8.60;;
9763;SDS011;4921;43.214;27.936;2024-02-23T11:15:09;15.93;;;8.80;;
9763;SDS011;4921;43.214;27.936;2024-02-23T11:17:51;14.43;;;8.77;;
9763;SDS011;4921;43.214;27.936;2024-02-23T11:20:17;16.08;;;9.43;;
9763;SDS011;4921;43.214;27.936;2024-02-23T11:22:43;16.77;;;9.82;;
9763;SDS011;4921;43.214;27.936;2024-02-23T11:25:09;16.25;;;8.65;;
9763;SDS011;4921;43.214;27.936;2024-02-23T11:27:35;18.88;;;9.80;;
9763;SDS011;4921;43.214;27.936;2024-02-23T11:30:03;19.73;;;11.13;;
9763;SDS011;4921;43.214;27.936;2024-02-23T11:32:37;17.58;;;11.18;;
9763;SDS011;4921;43.214;27.936;2024-02-23T11:35:12;18.13;;;10.35;;
9763;SDS011;4921;43.214;27.936;2024-02-23T11:37:52;21.35;;;11.27;;
9763;SDS011;4921;43.214;27.936;2024-02-23T11:40:28;18.58;;;9.95;;
9763;SDS011;4921;43.214;27.936;2024-02-23T11:42:55;20.95;;;10.95;;
9763;SDS011;4921;43.214;27.936;2024-02-23T11:45:21;20.55;;;11.93;;
9763;SDS011;4921;43.214;27.936;2024-02-23T11:47:48;20.35;;;10.45;;
9763;SDS011;4921;43.214;27.936;2024-02-23T11:50:14;19.88;;;11.10;;
9763;SDS011;4921;43.214;27.936;2024-02-23T11:52:45;20.20;;;12.18;;
9763;SDS011;4921;43.214;27.936;2024-02-23T11:55:11;23.60;;;11.65;;
9763;SDS011;4921;43.214;27.936;2024-02-23T11:57:38;22.08;;;10.90;;
9763;SDS011;4921;43.214;27.936;2024-02-23T12:00:04;23.77;;;11.60;;
9763;SDS011;4921;43.214;27.936;2024-02-23T12:02:35;20.90;;;10.63;;
9763;SDS011;4921;43.214;27.936;2024-02-23T12:05:01;16.90;;;9.45;;
9763;SDS011;4921;43.214;27.936;2024-02-23T12:07:27;16.48;;;9.55;;
9763;SDS011;4921;43.214;27.936;2024-02-23T12:09:55;26.80;;;11.93;;
9763;SDS011;4921;43.214;27.936;2024-02-23T12:12:21;21.67;;;11.05;;
9763;SDS011;4921;43.214;27.936;2024-02-23T12:14:47;25.25;;;13.07;;
9763;SDS011;4921;43.214;27.936;2024-02-23T12:17:13;21.20;;;12.35;;
9763;SDS011;4921;43.214;27.936;2024-02-23T12:19:39;23.25;;;13.75;;
9763;SDS011;4921;43.214;27.936;2024-02-23T12:22:06;25.95;;;13.68;;
9763;SDS011;4921;43.214;27.936;2024-02-23T12:24:31;27.90;;;13.98;;
9763;SDS011;4921;43.214;27.936;2024-02-23T12:26:57;28.00;;;13.85;;
9763;SDS011;4921;43.214;27.936;2024-02-23T12:29:23;25.80;;;14.50;;
9763;SDS011;4921;43.214;27.936;2024-02-23T12:31:49;24.67;;;13.60;;
9763;SDS011;4921;43.214;27.936;2024-02-23T12:34:15;24.13;;;13.98;;
9763;SDS011;4921;43.214;27.936;2024-02-23T12:36:41;22.20;;;13.57;;
9763;SDS011;4921;43.214;27.936;2024-02-23T12:39:06;28.63;;;13.93;;
9763;SDS011;4921;43.214;27.936;2024-02-23T12:41:32;26.42;;;13.43;;
9763;SDS011;4921;43.214;27.936;2024-02-23T12:43:59;24.05;;;12.98;;
9763;SDS011;4921;43.214;27.936;2024-02-23T12:46:24;24.88;;;12.88;;
9763;SDS011;4921;43.214;27.936;2024-02-23T12:48:50;23.20;;;13.63;;
9763;SDS011;4921;43.214;27.936;2024-02-23T12:51:16;23.63;;;12.52;;
9763;SDS011;4921;43.214;27.936;2024-02-23T12:53:42;24.35;;;12.18;;
9763;SDS011;4921;43.214;27.936;2024-02-23T12:56:12;20.67;;;11.90;;
9763;SDS011;4921;43.214;27.936;2024-02-23T12:58:39;22.90;;;11.80;;
9763;SDS011;4921;43.214;27.936;2024-02-23T13:01:06;23.17;;;13.00;;
9763;SDS011;4921;43.214;27.936;2024-02-23T13:03:36;23.30;;;12.93;;
9763;SDS011;4921;43.214;27.936;2024-02-23T13:06:03;24.17;;;12.77;;
9763;SDS011;4921;43.214;27.936;2024-02-23T13:08:30;20.63;;;11.82;;
9763;SDS011;4921;43.214;27.936;2024-02-23T13:10:56;19.65;;;11.38;;
9763;SDS011;4921;43.214;27.936;2024-02-23T13:13:22;25.10;;;12.60;;
9763;SDS011;4921;43.214;27.936;2024-02-23T13:15:49;24.00;;;12.85;;
9763;SDS011;4921;43.214;27.936;2024-02-23T13:18:15;24.27;;;12.50;;
9763;SDS011;4921;43.214;27.936;2024-02-23T13:20:41;26.17;;;12.52;;
9763;SDS011;4921;43.214;27.936;2024-02-23T13:23:10;25.25;;;12.10;;
9763;SDS011;4921;43.214;27.936;2024-02-23T13:25:37;24.58;;;12.35;;
9763;SDS011;4921;43.214;27.936;2024-02-23T13:28:03;23.67;;;11.52;;
9763;SDS011;4921;43.214;27.936;2024-02-23T13:30:30;20.00;;;11.02;;
9763;SDS011;4921;43.214;27.936;2024-02-23T13:32:55;20.02;;;10.77;;
9763;SDS011;4921;43.214;27.936;2024-02-23T13:35:21;26.30;;;12.60;;
9763;SDS011;4921;43.214;27.936;2024-02-23T13:37:47;22.42;;;11.77;;
9763;SDS011;4921;43.214;27.936;2024-02-23T13:40:13;19.85;;;10.98;;
9763;SDS011;4921;43.214;27.936;2024-02-23T13:42:39;26.27;;;12.10;;
9763;SDS011;4921;43.214;27.936;2024-02-23T13:45:05;22.42;;;11.30;;
9763;SDS011;4921;43.214;27.936;2024-02-23T13:47:34;25.65;;;11.95;;
9763;SDS011;4921;43.214;27.936;2024-02-23T13:50:00;21.35;;;11.70;;
9763;SDS011;4921;43.214;27.936;2024-02-23T13:52:27;25.08;;;12.27;;
9763;SDS011;4921;43.214;27.936;2024-02-23T13:54:53;22.83;;;12.15;;
9763;SDS011;4921;43.214;27.936;2024-02-23T13:57:19;25.00;;;11.23;;
9763;SDS011;4921;43.214;27.936;2024-02-23T13:59:45;21.00;;;11.20;;
9763;SDS011;4921;43.214;27.936;2024-02-23T14:02:11;19.40;;;10.90;;
9763;SDS011;4921;43.214;27.936;2024-02-23T14:04:37;18.92;;;10.60;;
9763;SDS011;4921;43.214;27.936;2024-02-23T14:07:03;18.77;;;10.30;;
9763;SDS011;4921;43.214;27.936;2024-02-23T14:09:29;18.90;;;10.65;;
9763;SDS011;4921;43.214;27.936;2024-02-23T14:11:55;21.10;;;10.85;;
9763;SDS011;4921;43.214;27.936;2024-02-23T14:14:21;17.60;;;10.02;;
9763;SDS011;4921;43.214;27.936;2024-02-23T14:16:47;18.13;;;9.85;;
9763;SDS011;4921;43.214;27.936;2024-02-23T14:19:13;18.65;;;10.73;;
9763;SDS011;4921;43.214;27.936;2024-02-23T14:21:38;18.20;;;9.05;;
9763;SDS011;4921;43.214;27.936;2024-02-23T14:24:04;16.75;;;9.20;;
9763;SDS011;4921;43.214;27.936;2024-02-23T14:26:30;15.65;;;9.13;;
9763;SDS011;4921;43.214;27.936;2024-02-23T14:28:55;17.38;;;9.75;;
9763;SDS011;4921;43.214;27.936;2024-02-23T14:31:21;17.63;;;9.88;;
9763;SDS011;4921;43.214;27.936;2024-02-23T14:33:46;17.88;;;9.63;;
9763;SDS011;4921;43.214;27.936;2024-02-23T14:36:16;19.85;;;9.07;;
9763;SDS011;4921;43.214;27.936;2024-02-23T14:38:42;15.15;;;9.48;;